sensor_id;sensor_type;location;lat;lon;timestamp;P1;durP1;ratioP1;P2;durP2;ratioP2
68432;SDS011;55412;51.350;17.056;2023-10-13T00:01:55;4.47;;;1.80;;
68432;SDS011;55412;51.350;17.056;2023-10-13T00:04:27;4.57;;;1.88;;
68432;SDS011;55412;51.350;17.056;2023-10-13T00:06:54;6.35;;;1.70;;
68432;SDS011;55412;51.350;17.056;2023-10-13T00:09:30;5.20;;;1.67;;
68432;SDS011;55412;51.350;17.056;2023-10-13T00:12:06;4.55;;;2.03;;
68432;SDS011;55412;51.350;17.056;2023-10-13T00:14:39;6.30;;;2.03;;
68432;SDS011;55412;51.350;17.056;2023-10-13T00:17:10;4.53;;;1.98;;
68432;SDS011;55412;51.350;17.056;2023-10-13T00:19:45;7.43;;;2.22;;
68432;SDS011;55412;51.350;17.056;2023-10-13T00:22:17;6.47;;;2.60;;
68432;SDS011;55412;51.350;17.056;2023-10-13T00:24:44;4.40;;;1.98;;
68432;SDS011;55412;51.350;17.056;2023-10-13T00:27:14;6.47;;;1.80;;
68432;SDS011;55412;51.350;17.056;2023-10-13T00:30:05;5.15;;;1.88;;
68432;SDS011;55412;51.350;17.056;2023-10-13T00:32:49;5.95;;;1.75;;
68432;SDS011;55412;51.350;17.056;2023-10-13T00:35:22;5.23;;;1.60;;
68432;SDS011;55412;51.350;17.056;2023-10-13T00:38:00;5.32;;;2.10;;
68432;SDS011;55412;51.350;17.056;2023-10-13T00:40:38;6.00;;;2.00;;
68432;SDS011;55412;51.350;17.056;2023-10-13T00:43:09;4.28;;;1.38;;
68432;SDS011;55412;51.350;17.056;2023-10-13T00:45:45;4.95;;;1.95;;
68432;SDS011;55412;51.350;17.056;2023-10-13T00:48:34;5.30;;;2.50;;
68432;SDS011;55412;51.350;17.056;2023-10-13T00:51:11;5.25;;;2.30;;
68432;SDS011;55412;51.350;17.056;2023-10-13T00:54:05;6.43;;;2.03;;
68432;SDS011;55412;51.350;17.056;2023-10-13T00:56:40;5.55;;;2.08;;
68432;SDS011;55412;51.350;17.056;2023-10-13T00:59:33;4.93;;;1.95;;
68432;SDS011;55412;51.350;17.056;2023-10-13T01:02:01;5.73;;;1.93;;
68432;SDS011;55412;51.350;17.056;2023-10-13T01:04:56;6.43;;;2.10;;
68432;SDS011;55412;51.350;17.056;2023-10-13T01:07:22;4.90;;;1.90;;
68432;SDS011;55412;51.350;17.056;2023-10-13T01:09:49;5.43;;;2.17;;
68432;SDS011;55412;51.350;17.056;2023-10-13T01:12:15;6.53;;;1.85;;
68432;SDS011;55412;51.350;17.056;2023-10-13T01:14:41;7.33;;;2.07;;
68432;SDS011;55412;51.350;17.056;2023-10-13T01:17:09;5.63;;;1.73;;
68432;SDS011;55412;51.350;17.056;2023-10-13T01:19:35;6.57;;;1.98;;
68432;SDS011;55412;51.350;17.056;2023-10-13T01:22:08;5.60;;;2.40;;
68432;SDS011;55412;51.350;17.056;2023-10-13T01:24:35;5.70;;;1.88;;
68432;SDS011;55412;51.350;17.056;2023-10-13T01:27:05;5.33;;;2.33;;
68432;SDS011;55412;51.350;17.056;2023-10-13T01:29:43;5.82;;;1.90;;
68432;SDS011;55412;51.350;17.056;2023-10-13T01:32:14;5.40;;;1.90;;
68432;SDS011;55412;51.350;17.056;2023-10-13T01:34:45;5.93;;;1.83;;
68432;SDS011;55412;51.350;17.056;2023-10-13T01:37:11;6.07;;;2.30;;
68432;SDS011;55412;51.350;17.056;2023-10-13T01:39:37;6.17;;;2.47;;
68432;SDS011;55412;51.350;17.056;2023-10-13T01:42:03;5.32;;;2.10;;
68432;SDS011;55412;51.350;17.056;2023-10-13T01:44:31;5.88;;;1.65;;
68432;SDS011;55412;51.350;17.056;2023-10-13T01:46:58;6.85;;;2.05;;
68432;SDS011;55412;51.350;17.056;2023-10-13T01:49:31;7.30;;;1.88;;
68432;SDS011;55412;51.350;17.056;2023-10-13T01:52:12;5.60;;;2.47;;
68432;SDS011;55412;51.350;17.056;2023-10-13T01:54:42;5.53;;;1.70;;
68432;SDS011;55412;51.350;17.056;2023-10-13T01:57:14;5.15;;;1.90;;
68432;SDS011;55412;51.350;17.056;2023-10-13T01:59:51;5.63;;;2.08;;
68432;SDS011;55412;51.350;17.056;2023-10-13T02:02:17;4.90;;;2.03;;
68432;SDS011;55412;51.350;17.056;2023-10-13T02:04:53;8.50;;;2.80;;
68432;SDS011;55412;51.350;17.056;2023-10-13T02:07:21;5.55;;;2.20;;
68432;SDS011;55412;51.350;17.056;2023-10-13T02:09:59;7.10;;;2.33;;
68432;SDS011;55412;51.350;17.056;2023-10-13T02:12:31;5.85;;;1.95;;
68432;SDS011;55412;51.350;17.056;2023-10-13T02:15:10;8.40;;;2.45;;
68432;SDS011;55412;51.350;17.056;2023-10-13T02:17:38;5.47;;;2.00;;
68432;SDS011;55412;51.350;17.056;2023-10-13T02:20:08;7.80;;;1.98;;
68432;SDS011;55412;51.350;17.056;2023-10-13T02:22:39;6.45;;;2.08;;
68432;SDS011;55412;51.350;17.056;2023-10-13T02:25:15;4.93;;;2.20;;
68432;SDS011;55412;51.350;17.056;2023-10-13T02:28:02;6.68;;;2.35;;
68432;SDS011;55412;51.350;17.056;2023-10-13T02:30:37;6.53;;;2.60;;
68432;SDS011;55412;51.350;17.056;2023-10-13T02:33:05;6.15;;;2.00;;
68432;SDS011;55412;51.350;17.056;2023-10-13T02:35:31;5.68;;;2.35;;
68432;SDS011;55412;51.350;17.056;2023-10-13T02:37:59;5.22;;;2.35;;
68432;SDS011;55412;51.350;17.056;2023-10-13T02:40:35;5.05;;;1.80;;
68432;SDS011;55412;51.350;17.056;2023-10-13T02:43:01;7.03;;;2.50;;
68432;SDS011;55412;51.350;17.056;2023-10-13T02:45:29;6.55;;;2.50;;
68432;SDS011;55412;51.350;17.056;2023-10-13T02:47:57;5.47;;;2.17;;
68432;SDS011;55412;51.350;17.056;2023-10-13T02:50:39;6.88;;;2.30;;
68432;SDS011;55412;51.350;17.056;2023-10-13T02:53:15;8.38;;;2.45;;
68432;SDS011;55412;51.350;17.056;2023-10-13T02:55:53;5.57;;;2.53;;
68432;SDS011;55412;51.350;17.056;2023-10-13T02:58:22;6.35;;;1.48;;
68432;SDS011;55412;51.350;17.056;2023-10-13T03:00:48;5.93;;;1.70;;
68432;SDS011;55412;51.350;17.056;2023-10-13T03:03:14;6.10;;;2.00;;
68432;SDS011;55412;51.350;17.056;2023-10-13T03:05:43;4.55;;;2.13;;
68432;SDS011;55412;51.350;17.056;2023-10-13T03:08:10;6.67;;;1.60;;
68432;SDS011;55412;51.350;17.056;2023-10-13T03:10:42;6.25;;;2.30;;
68432;SDS011;55412;51.350;17.056;2023-10-13T03:13:12;7.75;;;2.63;;
68432;SDS011;55412;51.350;17.056;2023-10-13T03:15:38;5.40;;;2.50;;
68432;SDS011;55412;51.350;17.056;2023-10-13T03:18:05;5.03;;;1.75;;
68432;SDS011;55412;51.350;17.056;2023-10-13T03:20:31;6.73;;;2.00;;
68432;SDS011;55412;51.350;17.056;2023-10-13T03:22:57;6.10;;;2.20;;
68432;SDS011;55412;51.350;17.056;2023-10-13T03:25:24;5.38;;;2.20;;
68432;SDS011;55412;51.350;17.056;2023-10-13T03:27:53;5.93;;;2.55;;
68432;SDS011;55412;51.350;17.056;2023-10-13T03:30:21;6.05;;;2.45;;
68432;SDS011;55412;51.350;17.056;2023-10-13T03:32:55;7.53;;;2.40;;
68432;SDS011;55412;51.350;17.056;2023-10-13T03:35:21;6.88;;;2.72;;
68432;SDS011;55412;51.350;17.056;2023-10-13T03:37:56;7.43;;;2.47;;
68432;SDS011;55412;51.350;17.056;2023-10-13T03:40:22;6.38;;;2.30;;
68432;SDS011;55412;51.350;17.056;2023-10-13T03:42:49;6.55;;;2.60;;
68432;SDS011;55412;51.350;17.056;2023-10-13T03:45:24;6.10;;;2.10;;
68432;SDS011;55412;51.350;17.056;2023-10-13T03:47:51;6.53;;;2.90;;
68432;SDS011;55412;51.350;17.056;2023-10-13T03:50:19;5.70;;;2.03;;
68432;SDS011;55412;51.350;17.056;2023-10-13T03:52:55;6.68;;;2.55;;
68432;SDS011;55412;51.350;17.056;2023-10-13T03:55:25;5.15;;;2.10;;
68432;SDS011;55412;51.350;17.056;2023-10-13T03:57:54;9.43;;;2.00;;
68432;SDS011;55412;51.350;17.056;2023-10-13T04:00:24;5.15;;;2.05;;
68432;SDS011;55412;51.350;17.056;2023-10-13T04:02:52;5.03;;;2.30;;
68432;SDS011;55412;51.350;17.056;2023-10-13T04:05:29;6.10;;;1.90;;
68432;SDS011;55412;51.350;17.056;2023-10-13T04:08:12;4.80;;;2.17;;
68432;SDS011;55412;51.350;17.056;2023-10-13T04:10:54;5.80;;;2.50;;
68432;SDS011;55412;51.350;17.056;2023-10-13T04:13:21;7.05;;;2.50;;
68432;SDS011;55412;51.350;17.056;2023-10-13T04:16:07;6.05;;;2.60;;
68432;SDS011;55412;51.350;17.056;2023-10-13T04:19:00;6.78;;;2.88;;
68432;SDS011;55412;51.350;17.056;2023-10-13T04:21:27;7.50;;;2.25;;
68432;SDS011;55412;51.350;17.056;2023-10-13T04:24:22;7.10;;;2.53;;
68432;SDS011;55412;51.350;17.056;2023-10-13T04:27:09;6.15;;;1.90;;
68432;SDS011;55412;51.350;17.056;2023-10-13T04:29:54;8.27;;;2.60;;
68432;SDS011;55412;51.350;17.056;2023-10-13T04:32:21;7.03;;;2.25;;
68432;SDS011;55412;51.350;17.056;2023-10-13T04:34:54;5.85;;;3.03;;
68432;SDS011;55412;51.350;17.056;2023-10-13T04:37:42;5.47;;;2.07;;
68432;SDS011;55412;51.350;17.056;2023-10-13T04:40:26;5.70;;;2.80;;
68432;SDS011;55412;51.350;17.056;2023-10-13T04:43:00;5.72;;;2.58;;
68432;SDS011;55412;51.350;17.056;2023-10-13T04:45:42;6.15;;;2.50;;
68432;SDS011;55412;51.350;17.056;2023-10-13T04:48:20;7.93;;;2.50;;
68432;SDS011;55412;51.350;17.056;2023-10-13T04:50:47;7.07;;;2.50;;
68432;SDS011;55412;51.350;17.056;2023-10-13T04:53:24;6.68;;;2.75;;
68432;SDS011;55412;51.350;17.056;2023-10-13T04:55:58;7.03;;;2.72;;
68432;SDS011;55412;51.350;17.056;2023-10-13T04:58:29;5.85;;;2.03;;
68432;SDS011;55412;51.350;17.056;2023-10-13T05:01:01;6.57;;;2.22;;
68432;SDS011;55412;51.350;17.056;2023-10-13T05:03:47;6.97;;;2.53;;
68432;SDS011;55412;51.350;17.056;2023-10-13T05:06:17;8.45;;;2.80;;
68432;SDS011;55412;51.350;17.056;2023-10-13T05:09:03;5.60;;;2.17;;
68432;SDS011;55412;51.350;17.056;2023-10-13T05:11:47;6.20;;;2.78;;
68432;SDS011;55412;51.350;17.056;2023-10-13T05:14:32;6.90;;;2.72;;
68432;SDS011;55412;51.350;17.056;2023-10-13T05:17:16;7.83;;;2.53;;
68432;SDS011;55412;51.350;17.056;2023-10-13T05:20:01;7.78;;;2.70;;
68432;SDS011;55412;51.350;17.056;2023-10-13T05:22:45;7.35;;;2.53;;
68432;SDS011;55412;51.350;17.056;2023-10-13T05:25:30;6.88;;;2.45;;
68432;SDS011;55412;51.350;17.056;2023-10-13T05:28:19;6.68;;;2.40;;
68432;SDS011;55412;51.350;17.056;2023-10-13T05:31:04;6.10;;;2.57;;
68432;SDS011;55412;51.350;17.056;2023-10-13T05:33:48;5.47;;;2.65;;
68432;SDS011;55412;51.350;17.056;2023-10-13T05:36:33;6.47;;;2.38;;
68432;SDS011;55412;51.350;17.056;2023-10-13T05:39:18;5.20;;;2.50;;
68432;SDS011;55412;51.350;17.056;2023-10-13T05:42:02;6.35;;;2.08;;
68432;SDS011;55412;51.350;17.056;2023-10-13T05:44:47;6.20;;;3.00;;
68432;SDS011;55412;51.350;17.056;2023-10-13T05:47:33;5.07;;;2.45;;
68432;SDS011;55412;51.350;17.056;2023-10-13T05:50:08;5.63;;;2.33;;
68432;SDS011;55412;51.350;17.056;2023-10-13T05:52:48;8.02;;;2.42;;
68432;SDS011;55412;51.350;17.056;2023-10-13T05:55:24;5.07;;;2.30;;
68432;SDS011;55412;51.350;17.056;2023-10-13T05:58:13;6.10;;;2.43;;
68432;SDS011;55412;51.350;17.056;2023-10-13T06:00:59;5.25;;;2.30;;
68432;SDS011;55412;51.350;17.056;2023-10-13T06:03:44;6.80;;;2.90;;
68432;SDS011;55412;51.350;17.056;2023-10-13T06:06:29;8.68;;;2.63;;
68432;SDS011;55412;51.350;17.056;2023-10-13T06:09:14;6.13;;;2.30;;
68432;SDS011;55412;51.350;17.056;2023-10-13T06:12:06;4.83;;;1.97;;
68432;SDS011;55412;51.350;17.056;2023-10-13T06:14:50;7.43;;;3.15;;
68432;SDS011;55412;51.350;17.056;2023-10-13T06:17:35;9.38;;;2.67;;
68432;SDS011;55412;51.350;17.056;2023-10-13T06:20:20;5.93;;;2.25;;
68432;SDS011;55412;51.350;17.056;2023-10-13T06:23:04;5.28;;;2.50;;
68432;SDS011;55412;51.350;17.056;2023-10-13T06:25:52;5.07;;;2.50;;
68432;SDS011;55412;51.350;17.056;2023-10-13T06:28:38;5.32;;;2.40;;
68432;SDS011;55412;51.350;17.056;2023-10-13T06:31:08;6.43;;;2.35;;
68432;SDS011;55412;51.350;17.056;2023-10-13T06:33:40;4.95;;;2.30;;
68432;SDS011;55412;51.350;17.056;2023-10-13T06:36:12;5.95;;;2.35;;
68432;SDS011;55412;51.350;17.056;2023-10-13T06:38:38;7.07;;;2.70;;
68432;SDS011;55412;51.350;17.056;2023-10-13T06:41:05;5.38;;;2.45;;
68432;SDS011;55412;51.350;17.056;2023-10-13T06:43:36;6.43;;;2.22;;
68432;SDS011;55412;51.350;17.056;2023-10-13T06:46:11;4.90;;;2.45;;
68432;SDS011;55412;51.350;17.056;2023-10-13T06:48:48;7.20;;;2.92;;
68432;SDS011;55412;51.350;17.056;2023-10-13T06:51:19;10.90;;;3.10;;
68432;SDS011;55412;51.350;17.056;2023-10-13T06:53:52;5.47;;;2.35;;
68432;SDS011;55412;51.350;17.056;2023-10-13T06:56:21;5.47;;;2.15;;
68432;SDS011;55412;51.350;17.056;2023-10-13T06:58:54;5.88;;;2.25;;
68432;SDS011;55412;51.350;17.056;2023-10-13T07:01:33;5.65;;;2.28;;
68432;SDS011;55412;51.350;17.056;2023-10-13T07:04:04;6.33;;;2.70;;
68432;SDS011;55412;51.350;17.056;2023-10-13T07:06:41;7.55;;;2.92;;
68432;SDS011;55412;51.350;17.056;2023-10-13T07:09:32;5.55;;;2.50;;
68432;SDS011;55412;51.350;17.056;2023-10-13T07:12:01;6.55;;;2.70;;
68432;SDS011;55412;51.350;17.056;2023-10-13T07:14:32;6.00;;;2.40;;
68432;SDS011;55412;51.350;17.056;2023-10-13T07:17:02;7.20;;;2.57;;
68432;SDS011;55412;51.350;17.056;2023-10-13T07:19:30;6.35;;;2.72;;
68432;SDS011;55412;51.350;17.056;2023-10-13T07:21:59;8.38;;;2.63;;
68432;SDS011;55412;51.350;17.056;2023-10-13T07:24:49;5.85;;;2.83;;
68432;SDS011;55412;51.350;17.056;2023-10-13T07:27:16;6.20;;;2.47;;
68432;SDS011;55412;51.350;17.056;2023-10-13T07:29:50;4.87;;;2.03;;
68432;SDS011;55412;51.350;17.056;2023-10-13T07:32:36;8.20;;;2.13;;
68432;SDS011;55412;51.350;17.056;2023-10-13T07:35:02;5.50;;;2.50;;
68432;SDS011;55412;51.350;17.056;2023-10-13T07:37:36;6.50;;;2.70;;
68432;SDS011;55412;51.350;17.056;2023-10-13T07:40:07;6.93;;;2.88;;
68432;SDS011;55412;51.350;17.056;2023-10-13T07:42:52;8.20;;;2.80;;
68432;SDS011;55412;51.350;17.056;2023-10-13T07:45:48;5.93;;;2.70;;
68432;SDS011;55412;51.350;17.056;2023-10-13T07:48:23;5.72;;;2.60;;
68432;SDS011;55412;51.350;17.056;2023-10-13T07:51:00;6.45;;;2.83;;
68432;SDS011;55412;51.350;17.056;2023-10-13T07:53:29;10.30;;;2.90;;
68432;SDS011;55412;51.350;17.056;2023-10-13T07:56:04;7.00;;;2.47;;
68432;SDS011;55412;51.350;17.056;2023-10-13T07:58:31;7.15;;;2.83;;
68432;SDS011;55412;51.350;17.056;2023-10-13T08:00:57;6.68;;;3.90;;
68432;SDS011;55412;51.350;17.056;2023-10-13T08:03:24;8.93;;;3.20;;
68432;SDS011;55412;51.350;17.056;2023-10-13T08:06:05;10.68;;;3.30;;
68432;SDS011;55412;51.350;17.056;2023-10-13T08:08:37;6.10;;;3.27;;
68432;SDS011;55412;51.350;17.056;2023-10-13T08:13:48;5.43;;;3.08;;
68432;SDS011;55412;51.350;17.056;2023-10-13T08:16:25;6.22;;;2.40;;
68432;SDS011;55412;51.350;17.056;2023-10-13T08:19:32;6.65;;;2.67;;
68432;SDS011;55412;51.350;17.056;2023-10-13T08:22:05;6.47;;;2.93;;
68432;SDS011;55412;51.350;17.056;2023-10-13T08:24:48;7.72;;;3.30;;
68432;SDS011;55412;51.350;17.056;2023-10-13T08:27:18;6.03;;;2.88;;
68432;SDS011;55412;51.350;17.056;2023-10-13T08:30:14;9.55;;;3.03;;
68432;SDS011;55412;51.350;17.056;2023-10-13T08:33:07;5.80;;;2.75;;
68432;SDS011;55412;51.350;17.056;2023-10-13T08:35:43;8.33;;;3.80;;
68432;SDS011;55412;51.350;17.056;2023-10-13T08:38:42;7.30;;;2.97;;
68432;SDS011;55412;51.350;17.056;2023-10-13T08:41:31;7.20;;;2.83;;
68432;SDS011;55412;51.350;17.056;2023-10-13T08:44:03;6.35;;;3.03;;
68432;SDS011;55412;51.350;17.056;2023-10-13T08:46:30;6.32;;;2.92;;
68432;SDS011;55412;51.350;17.056;2023-10-13T08:49:26;7.00;;;2.60;;
68432;SDS011;55412;51.350;17.056;2023-10-13T08:51:54;6.93;;;3.03;;
68432;SDS011;55412;51.350;17.056;2023-10-13T08:54:53;6.85;;;3.33;;
68432;SDS011;55412;51.350;17.056;2023-10-13T08:57:42;7.38;;;2.88;;
68432;SDS011;55412;51.350;17.056;2023-10-13T09:00:15;6.18;;;3.10;;
68432;SDS011;55412;51.350;17.056;2023-10-13T09:03:13;10.03;;;3.07;;
68432;SDS011;55412;51.350;17.056;2023-10-13T09:06:03;5.82;;;2.70;;
68432;SDS011;55412;51.350;17.056;2023-10-13T09:08:33;6.88;;;2.88;;
68432;SDS011;55412;51.350;17.056;2023-10-13T09:11:18;7.78;;;3.05;;
68432;SDS011;55412;51.350;17.056;2023-10-13T09:13:51;7.03;;;2.78;;
68432;SDS011;55412;51.350;17.056;2023-10-13T09:16:18;6.73;;;2.73;;
68432;SDS011;55412;51.350;17.056;2023-10-13T09:19:07;6.85;;;2.95;;
68432;SDS011;55412;51.350;17.056;2023-10-13T09:21:40;9.48;;;3.05;;
68432;SDS011;55412;51.350;17.056;2023-10-13T09:24:10;6.43;;;3.00;;
68432;SDS011;55412;51.350;17.056;2023-10-13T09:26:43;7.05;;;2.95;;
68432;SDS011;55412;51.350;17.056;2023-10-13T09:29:15;6.23;;;2.63;;
68432;SDS011;55412;51.350;17.056;2023-10-13T09:31:44;5.53;;;2.75;;
68432;SDS011;55412;51.350;17.056;2023-10-13T09:34:25;5.78;;;2.28;;
68432;SDS011;55412;51.350;17.056;2023-10-13T09:36:57;6.82;;;3.33;;
68432;SDS011;55412;51.350;17.056;2023-10-13T09:39:25;5.93;;;2.90;;
68432;SDS011;55412;51.350;17.056;2023-10-13T09:42:09;7.03;;;3.27;;
68432;SDS011;55412;51.350;17.056;2023-10-13T09:44:37;6.43;;;2.70;;
68432;SDS011;55412;51.350;17.056;2023-10-13T09:47:06;6.45;;;3.00;;
68432;SDS011;55412;51.350;17.056;2023-10-13T09:49:47;7.00;;;2.90;;
68432;SDS011;55412;51.350;17.056;2023-10-13T09:52:18;6.85;;;3.15;;
68432;SDS011;55412;51.350;17.056;2023-10-13T09:57:39;6.32;;;2.97;;
68432;SDS011;55412;51.350;17.056;2023-10-13T10:00:15;8.77;;;3.17;;
68432;SDS011;55412;51.350;17.056;2023-10-13T10:03:11;6.65;;;3.20;;
68432;SDS011;55412;51.350;17.056;2023-10-13T10:06:01;6.72;;;3.30;;
68432;SDS011;55412;51.350;17.056;2023-10-13T10:08:50;5.43;;;2.77;;
68432;SDS011;55412;51.350;17.056;2023-10-13T10:14:13;8.20;;;3.08;;
68432;SDS011;55412;51.350;17.056;2023-10-13T10:19:33;8.68;;;4.45;;
68432;SDS011;55412;51.350;17.056;2023-10-13T10:22:28;14.37;;;5.67;;
68432;SDS011;55412;51.350;17.056;2023-10-13T10:25:01;15.07;;;5.80;;
68432;SDS011;55412;51.350;17.056;2023-10-13T10:27:39;15.80;;;6.20;;
68432;SDS011;55412;51.350;17.056;2023-10-13T10:30:06;13.40;;;6.43;;
68432;SDS011;55412;51.350;17.056;2023-10-13T10:32:38;17.63;;;7.22;;
68432;SDS011;55412;51.350;17.056;2023-10-13T10:35:10;15.47;;;6.50;;
68432;SDS011;55412;51.350;17.056;2023-10-13T10:37:41;17.08;;;6.60;;
68432;SDS011;55412;51.350;17.056;2023-10-13T10:40:14;19.58;;;7.80;;
68432;SDS011;55412;51.350;17.056;2023-10-13T10:43:19;20.85;;;8.13;;
68432;SDS011;55412;51.350;17.056;2023-10-13T10:45:46;20.80;;;9.75;;
68432;SDS011;55412;51.350;17.056;2023-10-13T10:48:16;21.40;;;9.10;;
68432;SDS011;55412;51.350;17.056;2023-10-13T10:51:05;22.40;;;9.98;;
68432;SDS011;55412;51.350;17.056;2023-10-13T10:53:39;20.83;;;8.10;;
68432;SDS011;55412;51.350;17.056;2023-10-13T10:56:10;23.33;;;8.23;;
68432;SDS011;55412;51.350;17.056;2023-10-13T10:58:53;22.35;;;9.48;;
68432;SDS011;55412;51.350;17.056;2023-10-13T11:01:27;20.47;;;9.13;;
68432;SDS011;55412;51.350;17.056;2023-10-13T11:04:12;18.58;;;7.65;;
68432;SDS011;55412;51.350;17.056;2023-10-13T11:06:46;17.65;;;6.70;;
68432;SDS011;55412;51.350;17.056;2023-10-13T11:09:29;19.63;;;7.97;;
68432;SDS011;55412;51.350;17.056;2023-10-13T11:17:50;21.63;;;8.38;;
68432;SDS011;55412;51.350;17.056;2023-10-13T11:20:20;19.33;;;7.40;;
68432;SDS011;55412;51.350;17.056;2023-10-13T11:22:59;23.23;;;10.15;;
68432;SDS011;55412;51.350;17.056;2023-10-13T11:25:30;25.05;;;9.25;;
68432;SDS011;55412;51.350;17.056;2023-10-13T11:28:18;23.70;;;9.53;;
68432;SDS011;55412;51.350;17.056;2023-10-13T11:30:54;23.25;;;9.55;;
68432;SDS011;55412;51.350;17.056;2023-10-13T11:33:24;22.08;;;9.43;;
68432;SDS011;55412;51.350;17.056;2023-10-13T11:35:55;20.17;;;8.80;;
68432;SDS011;55412;51.350;17.056;2023-10-13T11:38:23;23.98;;;9.38;;
68432;SDS011;55412;51.350;17.056;2023-10-13T11:40:55;22.33;;;8.77;;
68432;SDS011;55412;51.350;17.056;2023-10-13T11:43:34;24.15;;;9.65;;
68432;SDS011;55412;51.350;17.056;2023-10-13T11:46:12;24.02;;;9.20;;
68432;SDS011;55412;51.350;17.056;2023-10-13T11:48:43;24.90;;;8.90;;
68432;SDS011;55412;51.350;17.056;2023-10-13T11:51:13;25.58;;;10.25;;
68432;SDS011;55412;51.350;17.056;2023-10-13T11:53:49;25.10;;;9.70;;
68432;SDS011;55412;51.350;17.056;2023-10-13T11:56:20;26.45;;;9.45;;
68432;SDS011;55412;51.350;17.056;2023-10-13T11:58:48;23.70;;;8.50;;
68432;SDS011;55412;51.350;17.056;2023-10-13T12:01:14;21.70;;;8.70;;
68432;SDS011;55412;51.350;17.056;2023-10-13T12:03:48;20.48;;;8.30;;
68432;SDS011;55412;51.350;17.056;2023-10-13T12:06:33;20.77;;;8.20;;
68432;SDS011;55412;51.350;17.056;2023-10-13T12:09:20;18.05;;;7.75;;
68432;SDS011;55412;51.350;17.056;2023-10-13T12:11:48;19.50;;;6.95;;
68432;SDS011;55412;51.350;17.056;2023-10-13T12:14:19;19.40;;;7.10;;
68432;SDS011;55412;51.350;17.056;2023-10-13T12:16:58;16.38;;;7.25;;
68432;SDS011;55412;51.350;17.056;2023-10-13T12:19:29;17.73;;;7.50;;
68432;SDS011;55412;51.350;17.056;2023-10-13T12:21:56;20.65;;;8.15;;
68432;SDS011;55412;51.350;17.056;2023-10-13T12:24:28;19.23;;;7.07;;
68432;SDS011;55412;51.350;17.056;2023-10-13T12:27:00;19.60;;;6.03;;
68432;SDS011;55412;51.350;17.056;2023-10-13T12:29:48;17.05;;;7.10;;
68432;SDS011;55412;51.350;17.056;2023-10-13T12:32:21;22.43;;;6.93;;
68432;SDS011;55412;51.350;17.056;2023-10-13T12:34:50;17.83;;;7.20;;
68432;SDS011;55412;51.350;17.056;2023-10-13T12:37:41;17.50;;;5.85;;
68432;SDS011;55412;51.350;17.056;2023-10-13T12:40:08;17.75;;;6.05;;
68432;SDS011;55412;51.350;17.056;2023-10-13T12:43:06;15.40;;;5.53;;
68432;SDS011;55412;51.350;17.056;2023-10-13T12:45:55;13.57;;;5.93;;
68432;SDS011;55412;51.350;17.056;2023-10-13T12:48:40;12.73;;;5.93;;
68432;SDS011;55412;51.350;17.056;2023-10-13T12:51:29;13.80;;;5.47;;
68432;SDS011;55412;51.350;17.056;2023-10-13T12:54:00;12.82;;;5.15;;
68432;SDS011;55412;51.350;17.056;2023-10-13T12:56:41;12.80;;;4.82;;
68432;SDS011;55412;51.350;17.056;2023-10-13T12:59:11;12.47;;;4.60;;
68432;SDS011;55412;51.350;17.056;2023-10-13T13:01:42;13.27;;;5.60;;
68432;SDS011;55412;51.350;17.056;2023-10-13T13:04:09;10.45;;;4.03;;
68432;SDS011;55412;51.350;17.056;2023-10-13T13:06:45;8.63;;;3.40;;
68432;SDS011;55412;51.350;17.056;2023-10-13T13:09:12;11.63;;;4.80;;
68432;SDS011;55412;51.350;17.056;2023-10-13T13:11:38;10.40;;;5.23;;
68432;SDS011;55412;51.350;17.056;2023-10-13T13:14:05;9.45;;;3.80;;
68432;SDS011;55412;51.350;17.056;2023-10-13T13:16:35;8.23;;;3.15;;
68432;SDS011;55412;51.350;17.056;2023-10-13T13:19:04;8.85;;;3.75;;
68432;SDS011;55412;51.350;17.056;2023-10-13T13:21:39;10.88;;;4.13;;
68432;SDS011;55412;51.350;17.056;2023-10-13T13:24:05;6.80;;;3.23;;
68432;SDS011;55412;51.350;17.056;2023-10-13T13:26:39;9.38;;;3.55;;
68432;SDS011;55412;51.350;17.056;2023-10-13T13:29:08;8.60;;;3.67;;
68432;SDS011;55412;51.350;17.056;2023-10-13T13:31:34;10.13;;;4.05;;
68432;SDS011;55412;51.350;17.056;2023-10-13T13:34:08;10.27;;;4.13;;
68432;SDS011;55412;51.350;17.056;2023-10-13T13:36:35;10.10;;;4.63;;
68432;SDS011;55412;51.350;17.056;2023-10-13T13:42:19;9.90;;;4.47;;
68432;SDS011;55412;51.350;17.056;2023-10-13T13:44:45;45.28;;;5.15;;
68432;SDS011;55412;51.350;17.056;2023-10-13T13:47:14;5.57;;;1.92;;
68432;SDS011;55412;51.350;17.056;2023-10-13T13:49:42;9.40;;;3.50;;
68432;SDS011;55412;51.350;17.056;2023-10-13T13:52:23;9.38;;;2.47;;
68432;SDS011;55412;51.350;17.056;2023-10-13T13:55:11;7.55;;;2.55;;
68432;SDS011;55412;51.350;17.056;2023-10-13T13:57:42;8.07;;;3.13;;
68432;SDS011;55412;51.350;17.056;2023-10-13T14:00:10;6.22;;;2.55;;
68432;SDS011;55412;51.350;17.056;2023-10-13T14:02:43;8.97;;;3.17;;
68432;SDS011;55412;51.350;17.056;2023-10-13T14:05:15;7.07;;;2.63;;
68432;SDS011;55412;51.350;17.056;2023-10-13T14:07:43;6.47;;;2.53;;
68432;SDS011;55412;51.350;17.056;2023-10-13T14:10:16;8.35;;;2.55;;
68432;SDS011;55412;51.350;17.056;2023-10-13T14:13:04;6.28;;;2.70;;
68432;SDS011;55412;51.350;17.056;2023-10-13T14:19:22;6.95;;;2.63;;
68432;SDS011;55412;51.350;17.056;2023-10-13T14:21:56;6.82;;;2.85;;
68432;SDS011;55412;51.350;17.056;2023-10-13T14:24:31;6.00;;;2.67;;
68432;SDS011;55412;51.350;17.056;2023-10-13T14:27:01;6.32;;;2.30;;
68432;SDS011;55412;51.350;17.056;2023-10-13T14:29:47;4.70;;;1.67;;
68432;SDS011;55412;51.350;17.056;2023-10-13T14:32:21;7.43;;;3.10;;
68432;SDS011;55412;51.350;17.056;2023-10-13T14:34:52;6.05;;;2.22;;
68432;SDS011;55412;51.350;17.056;2023-10-13T14:37:22;6.13;;;2.35;;
68432;SDS011;55412;51.350;17.056;2023-10-13T14:39:55;6.40;;;2.50;;
68432;SDS011;55412;51.350;17.056;2023-10-13T14:42:25;6.57;;;2.60;;
68432;SDS011;55412;51.350;17.056;2023-10-13T14:44:53;6.70;;;2.67;;
68432;SDS011;55412;51.350;17.056;2023-10-13T14:47:30;6.75;;;2.85;;
68432;SDS011;55412;51.350;17.056;2023-10-13T14:49:56;5.43;;;2.55;;
68432;SDS011;55412;51.350;17.056;2023-10-13T14:52:28;6.38;;;2.53;;
68432;SDS011;55412;51.350;17.056;2023-10-13T14:54:58;4.90;;;1.83;;
68432;SDS011;55412;51.350;17.056;2023-10-13T14:57:24;7.68;;;3.40;;
68432;SDS011;55412;51.350;17.056;2023-10-13T14:59:54;6.88;;;2.75;;
68432;SDS011;55412;51.350;17.056;2023-10-13T15:02:22;5.63;;;2.38;;
68432;SDS011;55412;51.350;17.056;2023-10-13T15:04:49;6.38;;;2.90;;
68432;SDS011;55412;51.350;17.056;2023-10-13T15:07:19;5.67;;;3.00;;
68432;SDS011;55412;51.350;17.056;2023-10-13T15:09:47;4.72;;;2.17;;
68432;SDS011;55412;51.350;17.056;2023-10-13T15:12:13;6.22;;;2.53;;
68432;SDS011;55412;51.350;17.056;2023-10-13T15:14:40;5.60;;;2.67;;
68432;SDS011;55412;51.350;17.056;2023-10-13T15:17:09;6.00;;;2.60;;
68432;SDS011;55412;51.350;17.056;2023-10-13T15:19:43;6.43;;;2.33;;
68432;SDS011;55412;51.350;17.056;2023-10-13T15:22:10;5.70;;;2.67;;
68432;SDS011;55412;51.350;17.056;2023-10-13T15:24:42;6.40;;;2.95;;
68432;SDS011;55412;51.350;17.056;2023-10-13T15:27:10;6.53;;;3.08;;
68432;SDS011;55412;51.350;17.056;2023-10-13T15:29:37;6.88;;;2.90;;
68432;SDS011;55412;51.350;17.056;2023-10-13T15:32:03;6.13;;;2.00;;
68432;SDS011;55412;51.350;17.056;2023-10-13T15:34:50;6.60;;;2.22;;
68432;SDS011;55412;51.350;17.056;2023-10-13T15:37:17;6.10;;;2.15;;
68432;SDS011;55412;51.350;17.056;2023-10-13T15:39:44;7.07;;;3.00;;
68432;SDS011;55412;51.350;17.056;2023-10-13T15:42:10;6.45;;;2.90;;